Waupaca, WI (54981)

3:32 AM CDT on June 26, 2017 (GMT -0500)
Waupaca_9er | | Change Station
Active Advisory: Flood Warning

Elev 919 ft 44.36 °N, 89.09 °W | Updated 3 seconds ago

Clear
Clear
48.7 °F
Feels Like 49 °F
N
1.6
Wind Variable Wind from West
Gusts 4.5 mph

Today
High -- | Low -- °F
--% Chance of Precip.
Yesterday
High -- | Low -- °F
Precip. -- in
Pressure 30.05 in
Visibility 10.0 miles
Clouds Clear
Windchill 49 °F
Dew Point 48 °F
Humidity 99%
Rainfall 0.00 in
Snow Depth Not available.
5:13 AM 8:44 PM
Waxing Crescent, 7% visible
METAR KPCZ 260815Z AUTO 27003KT 10SM CLR 10/09 A3005 RMK AO2 T01010090
Pressure 30.05 in
Visibility 10.0 miles
Clouds Clear
Windchill 49 °F
Dew Point 48 °F
Humidity 99%
Rainfall 0.00 in
Snow Depth Not available.
5:13 AM 8:44 PM
Waxing Crescent, 7% visible
METAR KPCZ 260815Z AUTO 27003KT 10SM CLR 10/09 A3005 RMK AO2 T01010090

Get Your Daily Forecast Email!

Thanks for signing up!

Be on the lookout for a verification email in your inbox.

You'll start receiving severe weather alerts in your inbox..

×

10-Day Weather Forecast

Almanac

Astronomy

Jun. 26, 2017 Rise Set
Actual Time
Civil Twilight
Nautical Twilight
Astronomical Twilight
Moon
Length of Visible Light
Length of Day
Tomorrow will be .
, % of the Moon is Illuminated

Today's Extremes

State Highs State Lows

Community

WunderPhotos

Category 6

Welcome to Category 6. This is the collective home for Weather Underground's featured writeups by Dr. Jeff Masters (right), Bob Henson (left), Chris Burt, and other regular contributors.

Nearby

Air Quality

  Air Quality AQ Index Pollutant
Not available.

Snow Depth

Station Depth Elevation

Earthquake Activity

City Distance Mag. Time & Date
Minimum magnitude displayed is 2.5.

Coastal Water Temperatures

Place Temperature

Stations

Nearby Weather Stations

Station Location Temp. Windchill Dew Point Humidity Wind Precip. Elev Updated Type
                   

Watches & Warnings

Flood Warning
Issued: 8:47 PM CDT Jun. 25, 2017 – National Weather Service

The Flood Warning continues for
the Wolf River near Shiocton.
* At 7:30 am Sunday the stage was 12.3 feet.
* Flood stage is 12.0 feet.
* Minor flooding is occurring and minor flooding is forecast.
* Forecast... the river will continue to fall to below flood stage by
tomorrow evening.
* Impacts at 12.5 feet. There is widespread lowland flooding. Water
is surrounding structures along the river Near Island and Mill
Street.


Lat... Lon 4468 8852 4433 8848 4434 8867 4440 8867
      4450 8863 4468 8867